sensor_id;sensor_type;location;lat;lon;timestamp;pressure;altitude;pressure_sealevel;temperature;humidity
50394;BME280;36308;46.312;25.288;2024-03-23T00:54:21;96032.41;;;1.88;58.68
50394;BME280;36308;46.312;25.288;2024-03-23T00:56:46;96029.16;;;1.86;58.57
50394;BME280;36308;46.312;25.288;2024-03-23T00:59:12;96032.84;;;1.85;59.02
50394;BME280;36308;46.312;25.288;2024-03-23T01:01:37;96026.91;;;1.83;58.71
50394;BME280;36308;46.312;25.288;2024-03-23T01:04:02;96029.78;;;1.81;58.93
50394;BME280;36308;46.312;25.288;2024-03-23T01:06:28;96022.00;;;1.80;59.37
50394;BME280;36308;46.312;25.288;2024-03-23T01:08:53;96021.41;;;1.78;59.38
50394;BME280;36308;46.312;25.288;2024-03-23T01:11:18;96018.13;;;1.76;59.01
50394;BME280;36308;46.312;25.288;2024-03-23T01:13:44;96013.88;;;1.75;59.51
50394;BME280;36308;46.312;25.288;2024-03-23T01:16:09;96018.56;;;1.73;59.60
50394;BME280;36308;46.312;25.288;2024-03-23T01:21:38;96016.28;;;1.70;59.57
50394;BME280;36308;46.312;25.288;2024-03-23T01:24:03;96020.97;;;1.68;59.37
50394;BME280;36308;46.312;25.288;2024-03-23T01:26:28;96023.00;;;1.66;58.84
50394;BME280;36308;46.312;25.288;2024-03-23T01:28:54;96017.09;;;1.64;59.15
50394;BME280;36308;46.312;25.288;2024-03-23T01:31:19;96019.97;;;1.62;59.62
50394;BME280;36308;46.312;25.288;2024-03-23T01:33:44;96022.81;;;1.60;59.66
50394;BME280;36308;46.312;25.288;2024-03-23T01:36:10;96023.00;;;1.59;59.15
50394;BME280;36308;46.312;25.288;2024-03-23T01:38:35;96019.75;;;1.57;59.40
50394;BME280;36308;46.312;25.288;2024-03-23T01:41:01;96016.47;;;1.55;60.13
50394;BME280;36308;46.312;25.288;2024-03-23T01:43:26;96023.63;;;1.54;59.89
50394;BME280;36308;46.312;25.288;2024-03-23T01:45:51;96023.00;;;1.52;59.45
50394;BME280;36308;46.312;25.288;2024-03-23T01:48:19;96014.44;;;1.50;59.54
50394;BME280;36308;46.312;25.288;2024-03-23T01:50:44;96015.84;;;1.46;60.00
50394;BME280;36308;46.312;25.288;2024-03-23T01:53:09;96011.56;;;1.45;59.64
50394;BME280;36308;46.312;25.288;2024-03-23T01:55:35;96018.88;;;1.43;59.33
50394;BME280;36308;46.312;25.288;2024-03-23T01:58:00;96012.16;;;1.40;60.24
50394;BME280;36308;46.312;25.288;2024-03-23T02:00:26;96016.84;;;1.38;59.54
50394;BME280;36308;46.312;25.288;2024-03-23T02:02:53;96016.41;;;1.35;60.02
50394;BME280;36308;46.312;25.288;2024-03-23T02:05:18;96019.28;;;1.33;60.30
50394;BME280;36308;46.312;25.288;2024-03-23T02:07:43;96017.63;;;1.32;60.47
50394;BME280;36308;46.312;25.288;2024-03-23T02:10:09;96006.44;;;1.30;60.25
50394;BME280;36308;46.312;25.288;2024-03-23T02:12:35;96005.00;;;1.28;60.05
50394;BME280;36308;46.312;25.288;2024-03-23T02:15:02;96013.13;;;1.26;60.23
50394;BME280;36308;46.312;25.288;2024-03-23T02:17:28;96010.72;;;1.25;59.75
50394;BME280;36308;46.312;25.288;2024-03-23T02:19:54;96012.75;;;1.23;60.09
50394;BME280;36308;46.312;25.288;2024-03-23T02:22:19;96025.38;;;1.20;60.16
50394;BME280;36308;46.312;25.288;2024-03-23T02:24:44;96011.50;;;1.18;59.94
50394;BME280;36308;46.312;25.288;2024-03-23T02:27:10;96009.06;;;1.17;60.32
50394;BME280;36308;46.312;25.288;2024-03-23T02:29:35;96018.00;;;1.16;60.19
50394;BME280;36308;46.312;25.288;2024-03-23T02:32:00;96015.56;;;1.14;60.18
50394;BME280;36308;46.312;25.288;2024-03-23T02:34:26;96018.22;;;1.14;60.26
50394;BME280;36308;46.312;25.288;2024-03-23T02:36:52;96018.22;;;1.14;60.47
50394;BME280;36308;46.312;25.288;2024-03-23T02:39:17;96011.88;;;1.15;61.08
50394;BME280;36308;46.312;25.288;2024-03-23T02:41:42;96009.06;;;1.17;60.65
50394;BME280;36308;46.312;25.288;2024-03-23T02:44:08;96008.03;;;1.18;60.70
50394;BME280;36308;46.312;25.288;2024-03-23T02:46:36;96006.22;;;1.18;61.50
50394;BME280;36308;46.312;25.288;2024-03-23T02:49:02;96005.81;;;1.21;60.90
50394;BME280;36308;46.312;25.288;2024-03-23T02:51:28;96003.97;;;1.22;60.80
50394;BME280;36308;46.312;25.288;2024-03-23T02:53:54;96001.94;;;1.24;61.10
50394;BME280;36308;46.312;25.288;2024-03-23T02:56:19;96000.75;;;1.27;61.20
50394;BME280;36308;46.312;25.288;2024-03-23T02:58:44;96004.00;;;1.29;61.14
50394;BME280;36308;46.312;25.288;2024-03-23T03:01:10;95999.31;;;1.31;62.01
50394;BME280;36308;46.312;25.288;2024-03-23T03:03:35;95989.13;;;1.34;61.39
50394;BME280;36308;46.312;25.288;2024-03-23T03:06:00;95986.28;;;1.36;61.96
50394;BME280;36308;46.312;25.288;2024-03-23T03:08:26;95998.09;;;1.40;61.57
50394;BME280;36308;46.312;25.288;2024-03-23T03:10:51;95989.13;;;1.41;62.08
50394;BME280;36308;46.312;25.288;2024-03-23T03:13:16;95980.59;;;1.46;61.36
50394;BME280;36308;46.312;25.288;2024-03-23T03:15:45;95976.09;;;1.46;61.55
50394;BME280;36308;46.312;25.288;2024-03-23T03:18:10;95971.22;;;1.50;61.90
50394;BME280;36308;46.312;25.288;2024-03-23T03:20:39;95975.31;;;1.52;61.60
50394;BME280;36308;46.312;25.288;2024-03-23T03:23:04;95973.28;;;1.54;61.57
50394;BME280;36308;46.312;25.288;2024-03-23T03:25:30;95965.94;;;1.56;61.93
50394;BME280;36308;46.312;25.288;2024-03-23T03:27:55;95970.81;;;1.59;61.60
50394;BME280;36308;46.312;25.288;2024-03-23T03:30:20;95969.63;;;1.62;61.45
50394;BME280;36308;46.312;25.288;2024-03-23T03:32:46;95965.13;;;1.63;61.94
50394;BME280;36308;46.312;25.288;2024-03-23T03:35:11;95967.56;;;1.64;61.85
50394;BME280;36308;46.312;25.288;2024-03-23T03:37:36;95968.38;;;1.65;61.31
50394;BME280;36308;46.312;25.288;2024-03-23T03:40:02;95962.28;;;1.64;61.39
50394;BME280;36308;46.312;25.288;2024-03-23T03:42:28;95968.59;;;1.63;61.56
50394;BME280;36308;46.312;25.288;2024-03-23T03:44:53;95961.66;;;1.62;61.35
50394;BME280;36308;46.312;25.288;2024-03-23T03:47:19;95965.13;;;1.63;61.00
50394;BME280;36308;46.312;25.288;2024-03-23T03:49:44;95967.97;;;1.61;61.16
50394;BME280;36308;46.312;25.288;2024-03-23T03:52:10;95965.31;;;1.61;61.04
50394;BME280;36308;46.312;25.288;2024-03-23T03:54:35;95965.50;;;1.59;61.52
50394;BME280;36308;46.312;25.288;2024-03-23T03:57:00;95958.59;;;1.58;61.57
50394;BME280;36308;46.312;25.288;2024-03-23T03:59:27;95964.91;;;1.57;61.52
50394;BME280;36308;46.312;25.288;2024-03-23T04:01:52;95964.28;;;1.55;61.55
50394;BME280;36308;46.312;25.288;2024-03-23T04:04:17;95973.28;;;1.54;61.46
50394;BME280;36308;46.312;25.288;2024-03-23T04:06:43;95971.63;;;1.53;61.70
50394;BME280;36308;46.312;25.288;2024-03-23T04:11:55;95976.53;;;1.50;61.21
50394;BME280;36308;46.312;25.288;2024-03-23T04:14:20;95974.06;;;1.48;61.23
50394;BME280;36308;46.312;25.288;2024-03-23T04:16:46;95977.72;;;1.47;61.83
50394;BME280;36308;46.312;25.288;2024-03-23T04:19:11;95975.31;;;1.46;61.18
50394;BME280;36308;46.312;25.288;2024-03-23T04:21:40;95977.13;;;1.45;61.54
50394;BME280;36308;46.312;25.288;2024-03-23T04:24:05;95971.81;;;1.45;62.09
50394;BME280;36308;46.312;25.288;2024-03-23T04:26:40;95985.06;;;1.45;61.70
50394;BME280;36308;46.312;25.288;2024-03-23T04:29:05;95978.94;;;1.45;62.22
50394;BME280;36308;46.312;25.288;2024-03-23T04:31:31;95983.25;;;1.46;61.72
50394;BME280;36308;46.312;25.288;2024-03-23T04:33:57;95975.50;;;1.44;61.65
50394;BME280;36308;46.312;25.288;2024-03-23T04:36:22;95978.16;;;1.44;61.59
50394;BME280;36308;46.312;25.288;2024-03-23T04:38:47;95978.16;;;1.44;62.04
50394;BME280;36308;46.312;25.288;2024-03-23T04:41:15;95977.13;;;1.45;62.61
50394;BME280;36308;46.312;25.288;2024-03-23T04:43:40;95969.78;;;1.47;61.83
50394;BME280;36308;46.312;25.288;2024-03-23T04:46:05;95968.78;;;1.48;62.50
50394;BME280;36308;46.312;25.288;2024-03-23T04:48:31;95973.88;;;1.50;62.09
50394;BME280;36308;46.312;25.288;2024-03-23T04:50:57;95970.00;;;1.52;62.04
50394;BME280;36308;46.312;25.288;2024-03-23T04:53:23;95966.31;;;1.53;62.71
50394;BME280;36308;46.312;25.288;2024-03-23T04:55:53;95964.28;;;1.55;62.96
50394;BME280;36308;46.312;25.288;2024-03-23T04:58:18;95957.78;;;1.58;62.28
50394;BME280;36308;46.312;25.288;2024-03-23T05:00:43;95961.88;;;1.60;62.68
50394;BME280;36308;46.312;25.288;2024-03-23T05:03:09;95957.78;;;1.65;62.63
50394;BME280;36308;46.312;25.288;2024-03-23T05:05:34;95966.34;;;1.67;62.60
50394;BME280;36308;46.312;25.288;2024-03-23T05:07:59;95964.94;;;1.71;63.11
50394;BME280;36308;46.312;25.288;2024-03-23T05:10:25;95956.56;;;1.74;63.09
50394;BME280;36308;46.312;25.288;2024-03-23T05:12:50;95957.78;;;1.78;62.69
50394;BME280;36308;46.312;25.288;2024-03-23T05:15:16;95961.47;;;1.84;63.28
50394;BME280;36308;46.312;25.288;2024-03-23T05:17:42;95957.38;;;1.88;63.00
50394;BME280;36308;46.312;25.288;2024-03-23T05:20:07;95956.56;;;1.94;63.23
50394;BME280;36308;46.312;25.288;2024-03-23T05:22:35;95958.59;;;1.98;63.36
50394;BME280;36308;46.312;25.288;2024-03-23T05:25:00;95957.78;;;2.05;62.94
50394;BME280;36308;46.312;25.288;2024-03-23T05:27:26;95953.69;;;2.09;63.47
50394;BME280;36308;46.312;25.288;2024-03-23T05:29:51;95952.84;;;2.15;63.37
50394;BME280;36308;46.312;25.288;2024-03-23T05:32:16;95957.34;;;2.21;62.57
50394;BME280;36308;46.312;25.288;2024-03-23T05:34:41;95961.81;;;2.27;63.15
50394;BME280;36308;46.312;25.288;2024-03-23T05:37:07;95961.00;;;2.33;62.50
50394;BME280;36308;46.312;25.288;2024-03-23T05:39:32;95953.22;;;2.38;63.13
50394;BME280;36308;46.312;25.288;2024-03-23T05:41:58;95957.69;;;2.45;62.91
50394;BME280;36308;46.312;25.288;2024-03-23T05:44:23;95948.91;;;2.51;63.30
50394;BME280;36308;46.312;25.288;2024-03-23T05:46:48;95952.34;;;2.58;62.77
50394;BME280;36308;46.312;25.288;2024-03-23T05:49:15;95954.97;;;2.65;63.24
50394;BME280;36308;46.312;25.288;2024-03-23T05:51:40;95949.03;;;2.69;63.16
50394;BME280;36308;46.312;25.288;2024-03-23T05:54:05;95949.00;;;2.76;62.46
50394;BME280;36308;46.312;25.288;2024-03-23T05:56:31;95952.66;;;2.81;62.31
50394;BME280;36308;46.312;25.288;2024-03-23T05:58:56;95957.13;;;2.88;62.25
50394;BME280;36308;46.312;25.288;2024-03-23T06:01:22;95948.94;;;2.96;62.34
50394;BME280;36308;46.312;25.288;2024-03-23T06:03:47;95951.78;;;3.01;62.54
50394;BME280;36308;46.312;25.288;2024-03-23T06:06:12;95953.56;;;3.07;62.76
50394;BME280;36308;46.312;25.288;2024-03-23T06:08:38;95955.38;;;3.13;62.06
50394;BME280;36308;46.312;25.288;2024-03-23T06:11:04;95961.47;;;3.20;62.28
50394;BME280;36308;46.312;25.288;2024-03-23T06:13:31;95950.00;;;3.27;61.82
50394;BME280;36308;46.312;25.288;2024-03-23T06:15:56;95961.41;;;3.34;62.31
50394;BME280;36308;46.312;25.288;2024-03-23T06:18:22;95955.81;;;3.42;62.06
50394;BME280;36308;46.312;25.288;2024-03-23T06:20:47;95949.44;;;3.50;62.28
50394;BME280;36308;46.312;25.288;2024-03-23T06:23:12;95949.41;;;3.56;62.40
50394;BME280;36308;46.312;25.288;2024-03-23T06:25:39;95944.88;;;3.63;62.42
50394;BME280;36308;46.312;25.288;2024-03-23T06:28:05;95950.94;;;3.71;62.01
50394;BME280;36308;46.312;25.288;2024-03-23T06:30:30;95949.84;;;3.78;61.77
50394;BME280;36308;46.312;25.288;2024-03-23T06:32:57;95956.53;;;3.88;61.94
50394;BME280;36308;46.312;25.288;2024-03-23T06:35:22;95957.91;;;3.97;61.78
50394;BME280;36308;46.312;25.288;2024-03-23T06:37:47;95955.31;;;4.09;62.04
50394;BME280;36308;46.312;25.288;2024-03-23T06:40:13;95946.03;;;4.18;61.53
50394;BME280;36308;46.312;25.288;2024-03-23T06:42:38;95952.28;;;4.30;61.80
50394;BME280;36308;46.312;25.288;2024-03-23T06:45:04;95947.84;;;4.42;61.57
50394;BME280;36308;46.312;25.288;2024-03-23T06:47:32;95940.75;;;4.55;61.55
50394;BME280;36308;46.312;25.288;2024-03-23T06:49:59;95947.78;;;4.68;61.48
50394;BME280;36308;46.312;25.288;2024-03-23T06:52:27;95944.16;;;4.80;61.08
50394;BME280;36308;46.312;25.288;2024-03-23T06:54:57;95942.94;;;4.95;61.14
50394;BME280;36308;46.312;25.288;2024-03-23T06:57:23;95941.16;;;5.07;61.13
50394;BME280;36308;46.312;25.288;2024-03-23T07:02:35;95937.44;;;5.38;61.12
50394;BME280;36308;46.312;25.288;2024-03-23T07:05:00;95934.59;;;5.52;60.68
50394;BME280;36308;46.312;25.288;2024-03-23T07:07:26;95925.59;;;5.64;60.66
50394;BME280;36308;46.312;25.288;2024-03-23T07:09:53;95930.72;;;5.78;60.34
50394;BME280;36308;46.312;25.288;2024-03-23T07:12:18;95933.97;;;5.92;60.36
50394;BME280;36308;46.312;25.288;2024-03-23T07:14:44;95928.44;;;6.05;60.35
50394;BME280;36308;46.312;25.288;2024-03-23T07:17:10;95918.34;;;6.19;59.94
50394;BME280;36308;46.312;25.288;2024-03-23T07:19:37;95916.03;;;6.34;59.97
50394;BME280;36308;46.312;25.288;2024-03-23T07:22:03;95925.19;;;6.50;59.90
50394;BME280;36308;46.312;25.288;2024-03-23T07:24:28;95920.97;;;6.66;59.61
50394;BME280;36308;46.312;25.288;2024-03-23T07:26:55;95918.72;;;6.86;59.54
50394;BME280;36308;46.312;25.288;2024-03-23T07:32:17;95925.66;;;7.28;58.98
50394;BME280;36308;46.312;25.288;2024-03-23T07:34:42;95920.22;;;7.52;58.62
50394;BME280;36308;46.312;25.288;2024-03-23T07:37:09;95913.91;;;7.75;57.86
50394;BME280;36308;46.312;25.288;2024-03-23T07:42:20;95910.91;;;8.22;57.67
50394;BME280;36308;46.312;25.288;2024-03-23T07:44:46;95913.41;;;8.45;57.14
50394;BME280;36308;46.312;25.288;2024-03-23T07:57:32;95903.03;;;9.75;53.64
50394;BME280;36308;46.312;25.288;2024-03-23T07:59:58;95901.63;;;9.99;54.31
50394;BME280;36308;46.312;25.288;2024-03-23T08:02:23;95899.69;;;10.27;53.57
50394;BME280;36308;46.312;25.288;2024-03-23T08:04:49;95898.81;;;10.54;52.91
50394;BME280;36308;46.312;25.288;2024-03-23T08:07:14;95891.97;;;10.83;52.77
50394;BME280;36308;46.312;25.288;2024-03-23T08:09:39;95894.22;;;11.12;52.38
50394;BME280;36308;46.312;25.288;2024-03-23T08:12:05;95896.44;;;11.41;51.23
50394;BME280;36308;46.312;25.288;2024-03-23T08:14:30;95888.69;;;11.70;50.20
50394;BME280;36308;46.312;25.288;2024-03-23T08:16:55;95892.50;;;11.95;49.69
50394;BME280;36308;46.312;25.288;2024-03-23T08:19:21;95893.03;;;12.17;47.90
50394;BME280;36308;46.312;25.288;2024-03-23T08:21:46;95882.50;;;12.31;47.62
50394;BME280;36308;46.312;25.288;2024-03-23T08:24:11;95889.50;;;12.42;47.49
50394;BME280;36308;46.312;25.288;2024-03-23T08:26:37;95880.31;;;12.53;47.84
50394;BME280;36308;46.312;25.288;2024-03-23T08:29:02;95877.28;;;12.65;47.75
50394;BME280;36308;46.312;25.288;2024-03-23T08:31:28;95879.13;;;12.80;47.70
50394;BME280;36308;46.312;25.288;2024-03-23T08:33:53;95874.75;;;12.94;47.62
50394;BME280;36308;46.312;25.288;2024-03-23T08:36:19;95879.84;;;13.06;47.37
50394;BME280;36308;46.312;25.288;2024-03-23T08:38:44;95871.13;;;13.20;46.89
50394;BME280;36308;46.312;25.288;2024-03-23T08:41:10;95868.94;;;13.32;46.64
50394;BME280;36308;46.312;25.288;2024-03-23T08:43:36;95866.72;;;13.44;46.78
50394;BME280;36308;46.312;25.288;2024-03-23T08:46:12;95864.47;;;13.57;46.04
50394;BME280;36308;46.312;25.288;2024-03-23T08:48:38;95851.13;;;13.70;45.75
50394;BME280;36308;46.312;25.288;2024-03-23T08:51:04;95858.59;;;13.84;45.82
50394;BME280;36308;46.312;25.288;2024-03-23T08:53:30;95851.19;;;14.00;45.46
50394;BME280;36308;46.312;25.288;2024-03-23T08:55:56;95850.19;;;14.20;45.93
50394;BME280;36308;46.312;25.288;2024-03-23T08:58:23;95845.09;;;14.42;45.46
50394;BME280;36308;46.312;25.288;2024-03-23T09:00:49;95845.41;;;14.65;44.31
50394;BME280;36308;46.312;25.288;2024-03-23T09:03:14;95842.78;;;14.84;43.95
50394;BME280;36308;46.312;25.288;2024-03-23T09:05:40;95843.25;;;15.10;44.50
50394;BME280;36308;46.312;25.288;2024-03-23T09:08:05;95834.75;;;15.35;43.49
50394;BME280;36308;46.312;25.288;2024-03-23T09:10:31;95837.41;;;15.60;43.25
50394;BME280;36308;46.312;25.288;2024-03-23T09:12:56;95838.53;;;15.78;42.70
50394;BME280;36308;46.312;25.288;2024-03-23T09:15:22;95837.19;;;15.94;42.50
50394;BME280;36308;46.312;25.288;2024-03-23T09:17:47;95829.88;;;16.08;42.25
50394;BME280;36308;46.312;25.288;2024-03-23T09:20:12;95826.38;;;16.22;42.11
50394;BME280;36308;46.312;25.288;2024-03-23T09:22:38;95818.97;;;16.41;42.02
50394;BME280;36308;46.312;25.288;2024-03-23T09:25:03;95818.69;;;16.56;41.42
50394;BME280;36308;46.312;25.288;2024-03-23T09:27:30;95812.97;;;16.72;40.65
50394;BME280;36308;46.312;25.288;2024-03-23T09:29:55;95809.38;;;16.90;39.04
50394;BME280;36308;46.312;25.288;2024-03-23T09:32:20;95807.13;;;17.06;39.11
50394;BME280;36308;46.312;25.288;2024-03-23T09:34:46;95804.88;;;17.22;39.64
50394;BME280;36308;46.312;25.288;2024-03-23T09:37:11;95799.97;;;17.47;39.74
50394;BME280;36308;46.312;25.288;2024-03-23T09:39:36;95796.47;;;17.69;39.26
50394;BME280;36308;46.312;25.288;2024-03-23T09:42:02;95793.75;;;17.83;38.47
50394;BME280;36308;46.312;25.288;2024-03-23T09:44:27;95791.38;;;17.90;36.91
50394;BME280;36308;46.312;25.288;2024-03-23T09:46:54;95786.91;;;17.94;37.05
50394;BME280;36308;46.312;25.288;2024-03-23T09:49:20;95777.63;;;17.95;37.07
50394;BME280;36308;46.312;25.288;2024-03-23T09:51:45;95766.16;;;17.98;37.43
50394;BME280;36308;46.312;25.288;2024-03-23T09:54:11;95767.97;;;18.11;37.87
50394;BME280;36308;46.312;25.288;2024-03-23T09:56:36;95764.72;;;18.32;38.00
50394;BME280;36308;46.312;25.288;2024-03-23T09:59:02;95757.75;;;18.57;37.68
50394;BME280;36308;46.312;25.288;2024-03-23T10:01:29;95760.53;;;18.74;37.28
50394;BME280;36308;46.312;25.288;2024-03-23T10:03:54;95756.72;;;18.84;36.87
50394;BME280;36308;46.312;25.288;2024-03-23T10:06:21;95750.38;;;18.97;37.41
50394;BME280;36308;46.312;25.288;2024-03-23T10:08:46;95755.19;;;19.18;36.41
50394;BME280;36308;46.312;25.288;2024-03-23T10:11:15;95748.16;;;19.34;35.79
50394;BME280;36308;46.312;25.288;2024-03-23T10:13:42;95751.66;;;19.52;35.95
50394;BME280;36308;46.312;25.288;2024-03-23T10:16:07;95743.66;;;19.73;36.52
50394;BME280;36308;46.312;25.288;2024-03-23T10:18:36;95744.41;;;19.91;33.81
50394;BME280;36308;46.312;25.288;2024-03-23T10:23:30;95732.03;;;20.11;33.69
50394;BME280;36308;46.312;25.288;2024-03-23T10:26:00;95720.28;;;20.19;33.31
50394;BME280;36308;46.312;25.288;2024-03-23T10:28:37;95728.25;;;20.25;32.21
50394;BME280;36308;46.312;25.288;2024-03-23T10:31:08;95718.28;;;20.29;32.49
50394;BME280;36308;46.312;25.288;2024-03-23T10:33:36;95709.94;;;20.34;31.45
50394;BME280;36308;46.312;25.288;2024-03-23T10:36:01;95709.28;;;20.37;32.07
50394;BME280;36308;46.312;25.288;2024-03-23T10:38:27;95703.44;;;20.47;32.65
50394;BME280;36308;46.312;25.288;2024-03-23T10:40:54;95703.25;;;20.61;33.11
50394;BME280;36308;46.312;25.288;2024-03-23T10:43:20;95704.59;;;20.76;33.05
50394;BME280;36308;46.312;25.288;2024-03-23T10:45:45;95696.16;;;20.90;33.32
50394;BME280;36308;46.312;25.288;2024-03-23T10:48:11;95692.34;;;21.03;32.82
50394;BME280;36308;46.312;25.288;2024-03-23T10:50:36;95685.22;;;21.11;31.46
50394;BME280;36308;46.312;25.288;2024-03-23T10:53:01;95683.28;;;21.11;30.96
50394;BME280;36308;46.312;25.288;2024-03-23T10:55:27;95685.34;;;21.14;31.84
50394;BME280;36308;46.312;25.288;2024-03-23T10:57:56;95678.91;;;21.19;32.09
50394;BME280;36308;46.312;25.288;2024-03-23T11:00:23;95678.69;;;21.24;32.05
50394;BME280;36308;46.312;25.288;2024-03-23T11:02:49;95670.88;;;21.14;30.66
50394;BME280;36308;46.312;25.288;2024-03-23T11:07:49;95664.28;;;21.15;31.40
50394;BME280;36308;46.312;25.288;2024-03-23T11:10:24;95652.34;;;21.19;31.81
50394;BME280;36308;46.312;25.288;2024-03-23T11:12:50;95651.63;;;21.31;32.29
50394;BME280;36308;46.312;25.288;2024-03-23T11:15:15;95643.25;;;21.49;32.42
50394;BME280;36308;46.312;25.288;2024-03-23T11:17:40;95644.56;;;21.64;31.54
50394;BME280;36308;46.312;25.288;2024-03-23T11:20:06;95642.31;;;21.78;31.62
50394;BME280;36308;46.312;25.288;2024-03-23T11:25:25;95637.00;;;22.06;32.14
50394;BME280;36308;46.312;25.288;2024-03-23T11:27:56;95625.16;;;22.27;31.99
50394;BME280;36308;46.312;25.288;2024-03-23T11:30:25;95616.25;;;22.42;31.19
50394;BME280;36308;46.312;25.288;2024-03-23T11:32:52;95618.53;;;22.52;30.09
50394;BME280;36308;46.312;25.288;2024-03-23T11:35:38;95605.94;;;22.51;29.86
50394;BME280;36308;46.312;25.288;2024-03-23T11:40:34;95604.72;;;22.49;29.82
50394;BME280;36308;46.312;25.288;2024-03-23T11:43:10;95600.13;;;22.53;30.16
50394;BME280;36308;46.312;25.288;2024-03-23T11:45:43;95589.03;;;22.62;29.89
50394;BME280;36308;46.312;25.288;2024-03-23T11:48:10;95587.78;;;22.71;30.06
50394;BME280;36308;46.312;25.288;2024-03-23T11:50:36;95577.81;;;22.79;29.56
50394;BME280;36308;46.312;25.288;2024-03-23T11:55:44;95574.34;;;22.94;28.90
50394;BME280;36308;46.312;25.288;2024-03-23T11:58:10;95566.66;;;23.00;29.10
50394;BME280;36308;46.312;25.288;2024-03-23T12:00:35;95564.13;;;23.07;29.47
50394;BME280;36308;46.312;25.288;2024-03-23T12:03:01;95559.31;;;23.16;29.52
50394;BME280;36308;46.312;25.288;2024-03-23T12:05:27;95561.91;;;23.25;29.22
50394;BME280;36308;46.312;25.288;2024-03-23T12:07:52;95551.81;;;23.29;28.45
50394;BME280;36308;46.312;25.288;2024-03-23T12:10:19;95540.28;;;23.24;27.41
50394;BME280;36308;46.312;25.288;2024-03-23T12:12:44;95546.28;;;23.13;27.01
50394;BME280;36308;46.312;25.288;2024-03-23T12:15:10;95539.16;;;22.96;26.81
50394;BME280;36308;46.312;25.288;2024-03-23T12:17:36;95534.28;;;22.90;26.95
50394;BME280;36308;46.312;25.288;2024-03-23T12:20:01;95540.44;;;22.87;26.74
50394;BME280;36308;46.312;25.288;2024-03-23T12:22:27;95533.06;;;22.75;26.47
50394;BME280;36308;46.312;25.288;2024-03-23T12:24:54;95524.91;;;22.63;26.71
50394;BME280;36308;46.312;25.288;2024-03-23T12:27:20;95529.25;;;22.51;27.54
50394;BME280;36308;46.312;25.288;2024-03-23T12:29:45;95525.16;;;22.45;27.48
50394;BME280;36308;46.312;25.288;2024-03-23T12:32:12;95518.69;;;22.37;28.06
50394;BME280;36308;46.312;25.288;2024-03-23T12:34:37;95524.97;;;22.38;27.99
50394;BME280;36308;46.312;25.288;2024-03-23T12:37:03;95510.09;;;22.39;27.77
50394;BME280;36308;46.312;25.288;2024-03-23T12:39:28;95510.81;;;22.36;27.74
50394;BME280;36308;46.312;25.288;2024-03-23T12:41:53;95511.50;;;22.33;27.79
50394;BME280;36308;46.312;25.288;2024-03-23T12:44:19;95505.34;;;22.36;28.27
50394;BME280;36308;46.312;25.288;2024-03-23T12:46:44;95494.56;;;22.43;28.39
50394;BME280;36308;46.312;25.288;2024-03-23T12:49:10;95485.41;;;22.51;28.13
50394;BME280;36308;46.312;25.288;2024-03-23T12:51:35;95477.75;;;22.57;27.86
50394;BME280;36308;46.312;25.288;2024-03-23T12:54:01;95476.25;;;22.59;28.10
50394;BME280;36308;46.312;25.288;2024-03-23T12:56:26;95478.88;;;22.68;28.68
50394;BME280;36308;46.312;25.288;2024-03-23T12:58:55;95468.22;;;22.79;28.81
50394;BME280;36308;46.312;25.288;2024-03-23T13:01:22;95462.91;;;22.86;28.09
50394;BME280;36308;46.312;25.288;2024-03-23T13:03:48;95455.34;;;22.95;28.69
50394;BME280;36308;46.312;25.288;2024-03-23T13:06:14;95454.75;;;23.02;28.45
50394;BME280;36308;46.312;25.288;2024-03-23T13:08:39;95458.56;;;23.13;28.92
50394;BME280;36308;46.312;25.288;2024-03-23T13:11:08;95456.06;;;23.24;28.24
50394;BME280;36308;46.312;25.288;2024-03-23T13:13:37;95446.44;;;23.30;27.50
50394;BME280;36308;46.312;25.288;2024-03-23T13:16:02;95452.28;;;23.29;27.71
50394;BME280;36308;46.312;25.288;2024-03-23T13:18:28;95449.91;;;23.27;27.38
50394;BME280;36308;46.312;25.288;2024-03-23T13:20:54;95439.91;;;23.19;27.12
50394;BME280;36308;46.312;25.288;2024-03-23T13:23:19;95440.06;;;23.10;26.25
50394;BME280;36308;46.312;25.288;2024-03-23T13:28:20;95418.59;;;22.84;26.76
50394;BME280;36308;46.312;25.288;2024-03-23T13:31:03;95423.47;;;22.75;26.88
50394;BME280;36308;46.312;25.288;2024-03-23T13:33:29;95417.72;;;22.64;27.23
50394;BME280;36308;46.312;25.288;2024-03-23T13:35:55;95421.19;;;22.49;27.13
50394;BME280;36308;46.312;25.288;2024-03-23T13:38:21;95415.88;;;22.40;27.09
50394;BME280;36308;46.312;25.288;2024-03-23T13:40:53;95418.84;;;22.35;27.54
50394;BME280;36308;46.312;25.288;2024-03-23T13:43:19;95410.16;;;22.33;27.81
50394;BME280;36308;46.312;25.288;2024-03-23T13:45:44;95396.47;;;22.33;27.92
50394;BME280;36308;46.312;25.288;2024-03-23T13:48:10;95402.66;;;22.30;28.21
50394;BME280;36308;46.312;25.288;2024-03-23T13:50:35;95394.19;;;22.35;28.95
50394;BME280;36308;46.312;25.288;2024-03-23T13:53:00;95398.97;;;22.38;28.17
50394;BME280;36308;46.312;25.288;2024-03-23T13:55:26;95390.31;;;22.36;27.30
50394;BME280;36308;46.312;25.288;2024-03-23T13:57:51;95380.75;;;22.30;27.17
50394;BME280;36308;46.312;25.288;2024-03-23T14:00:16;95391.50;;;22.23;27.51
50394;BME280;36308;46.312;25.288;2024-03-23T14:02:43;95383.31;;;22.10;27.27
50394;BME280;36308;46.312;25.288;2024-03-23T14:05:09;95385.38;;;22.01;28.14
50394;BME280;36308;46.312;25.288;2024-03-23T14:07:34;95377.88;;;21.98;28.00
50394;BME280;36308;46.312;25.288;2024-03-23T14:10:02;95377.44;;;21.96;28.37
50394;BME280;36308;46.312;25.288;2024-03-23T14:12:27;95379.81;;;21.97;28.50
50394;BME280;36308;46.312;25.288;2024-03-23T14:14:53;95380.97;;;21.96;27.37
50394;BME280;36308;46.312;25.288;2024-03-23T14:17:19;95376.31;;;21.85;27.12
50394;BME280;36308;46.312;25.288;2024-03-23T14:19:44;95380.56;;;21.70;27.16
50394;BME280;36308;46.312;25.288;2024-03-23T14:22:09;95379.34;;;21.55;27.27